sensor_id;sensor_type;location;lat;lon;timestamp;temperature;humidity
31575;DHT22;18182;1.328;103.810;2023-02-28T00:00:08;28.30;99.90
31575;DHT22;18182;1.328;103.810;2023-02-28T00:02:39;28.30;99.90
31575;DHT22;18182;1.328;103.810;2023-02-28T00:05:05;28.30;99.90
31575;DHT22;18182;1.328;103.810;2023-02-28T00:07:32;28.30;99.90
31575;DHT22;18182;1.328;103.810;2023-02-28T00:09:58;28.30;99.90
31575;DHT22;18182;1.328;103.810;2023-02-28T00:12:24;28.30;99.90
31575;DHT22;18182;1.328;103.810;2023-02-28T00:14:51;28.30;99.90
31575;DHT22;18182;1.328;103.810;2023-02-28T00:17:17;28.30;99.90
31575;DHT22;18182;1.328;103.810;2023-02-28T00:19:47;28.30;99.90
31575;DHT22;18182;1.328;103.810;2023-02-28T00:22:14;28.20;99.90
31575;DHT22;18182;1.328;103.810;2023-02-28T00:24:41;28.10;99.90
31575;DHT22;18182;1.328;103.810;2023-02-28T00:27:07;28.10;99.90
31575;DHT22;18182;1.328;103.810;2023-02-28T00:29:33;28.10;99.90
31575;DHT22;18182;1.328;103.810;2023-02-28T00:31:59;28.00;99.90
31575;DHT22;18182;1.328;103.810;2023-02-28T00:34:25;28.00;99.90
31575;DHT22;18182;1.328;103.810;2023-02-28T00:36:51;28.00;99.90
31575;DHT22;18182;1.328;103.810;2023-02-28T00:39:18;28.00;99.90
31575;DHT22;18182;1.328;103.810;2023-02-28T00:41:44;28.00;99.90
31575;DHT22;18182;1.328;103.810;2023-02-28T00:44:10;28.00;99.90
31575;DHT22;18182;1.328;103.810;2023-02-28T00:46:36;28.10;99.90
31575;DHT22;18182;1.328;103.810;2023-02-28T00:49:03;28.10;99.90
31575;DHT22;18182;1.328;103.810;2023-02-28T00:51:29;28.10;99.90
31575;DHT22;18182;1.328;103.810;2023-02-28T00:53:55;28.10;99.90
31575;DHT22;18182;1.328;103.810;2023-02-28T00:56:21;28.20;99.90
31575;DHT22;18182;1.328;103.810;2023-02-28T00:58:47;28.20;99.90
31575;DHT22;18182;1.328;103.810;2023-02-28T01:01:13;28.20;99.90
31575;DHT22;18182;1.328;103.810;2023-02-28T01:03:40;28.20;99.90
31575;DHT22;18182;1.328;103.810;2023-02-28T01:06:06;28.20;99.90
31575;DHT22;18182;1.328;103.810;2023-02-28T01:08:32;28.20;99.90
31575;DHT22;18182;1.328;103.810;2023-02-28T01:11:06;28.30;99.90
31575;DHT22;18182;1.328;103.810;2023-02-28T01:13:32;28.40;99.90
31575;DHT22;18182;1.328;103.810;2023-02-28T01:15:58;28.40;99.90
31575;DHT22;18182;1.328;103.810;2023-02-28T01:18:24;28.40;99.90
31575;DHT22;18182;1.328;103.810;2023-02-28T01:20:51;28.40;99.90
31575;DHT22;18182;1.328;103.810;2023-02-28T01:23:18;28.40;99.90
31575;DHT22;18182;1.328;103.810;2023-02-28T01:25:45;28.50;99.90
31575;DHT22;18182;1.328;103.810;2023-02-28T01:28:11;28.50;99.90
31575;DHT22;18182;1.328;103.810;2023-02-28T01:30:37;28.50;99.90
31575;DHT22;18182;1.328;103.810;2023-02-28T01:33:03;28.50;99.90
31575;DHT22;18182;1.328;103.810;2023-02-28T01:35:32;28.60;99.90
31575;DHT22;18182;1.328;103.810;2023-02-28T01:37:58;28.70;99.90
31575;DHT22;18182;1.328;103.810;2023-02-28T01:40:24;28.70;99.90
31575;DHT22;18182;1.328;103.810;2023-02-28T01:42:50;28.70;99.90
31575;DHT22;18182;1.328;103.810;2023-02-28T01:47:42;28.80;99.90
31575;DHT22;18182;1.328;103.810;2023-02-28T01:50:14;28.80;99.90
31575;DHT22;18182;1.328;103.810;2023-02-28T01:52:40;28.80;99.90
31575;DHT22;18182;1.328;103.810;2023-02-28T01:55:07;28.80;99.90
31575;DHT22;18182;1.328;103.810;2023-02-28T01:57:35;28.80;99.90
31575;DHT22;18182;1.328;103.810;2023-02-28T02:00:07;28.90;99.90
31575;DHT22;18182;1.328;103.810;2023-02-28T02:02:38;28.90;99.90
31575;DHT22;18182;1.328;103.810;2023-02-28T02:05:07;28.90;99.90
31575;DHT22;18182;1.328;103.810;2023-02-28T02:07:36;28.90;99.90
31575;DHT22;18182;1.328;103.810;2023-02-28T02:10:05;28.90;99.90
31575;DHT22;18182;1.328;103.810;2023-02-28T02:12:43;28.90;99.90
31575;DHT22;18182;1.328;103.810;2023-02-28T02:15:16;28.90;99.90
31575;DHT22;18182;1.328;103.810;2023-02-28T02:17:44;28.90;99.90
31575;DHT22;18182;1.328;103.810;2023-02-28T02:27:57;28.90;99.90
31575;DHT22;18182;1.328;103.810;2023-02-28T02:30:40;28.90;99.90
31575;DHT22;18182;1.328;103.810;2023-02-28T02:43:22;28.90;99.90
31575;DHT22;18182;1.328;103.810;2023-02-28T02:45:55;28.90;99.90
31575;DHT22;18182;1.328;103.810;2023-02-28T02:48:24;28.90;99.90
31575;DHT22;18182;1.328;103.810;2023-02-28T02:50:52;28.90;99.90
31575;DHT22;18182;1.328;103.810;2023-02-28T02:53:21;29.00;99.90
31575;DHT22;18182;1.328;103.810;2023-02-28T02:55:50;29.00;99.90
31575;DHT22;18182;1.328;103.810;2023-02-28T02:58:21;29.00;99.90
31575;DHT22;18182;1.328;103.810;2023-02-28T03:00:50;29.10;99.90
31575;DHT22;18182;1.328;103.810;2023-02-28T03:03:18;29.10;99.90
31575;DHT22;18182;1.328;103.810;2023-02-28T03:05:54;29.10;99.90
31575;DHT22;18182;1.328;103.810;2023-02-28T03:08:21;29.10;99.90
31575;DHT22;18182;1.328;103.810;2023-02-28T03:10:51;29.20;99.90
31575;DHT22;18182;1.328;103.810;2023-02-28T03:26:29;29.60;99.90
31575;DHT22;18182;1.328;103.810;2023-02-28T03:28:59;29.60;99.90
31575;DHT22;18182;1.328;103.810;2023-02-28T03:31:36;29.60;99.90
31575;DHT22;18182;1.328;103.810;2023-02-28T03:36:46;29.70;99.90
31575;DHT22;18182;1.328;103.810;2023-02-28T03:39:18;29.70;99.90
31575;DHT22;18182;1.328;103.810;2023-02-28T03:41:47;29.70;99.90
31575;DHT22;18182;1.328;103.810;2023-02-28T03:44:17;29.70;99.90
31575;DHT22;18182;1.328;103.810;2023-02-28T03:46:46;29.70;99.90
31575;DHT22;18182;1.328;103.810;2023-02-28T03:49:16;29.70;99.90
31575;DHT22;18182;1.328;103.810;2023-02-28T03:51:43;29.60;99.90
31575;DHT22;18182;1.328;103.810;2023-02-28T03:54:13;29.60;99.90
31575;DHT22;18182;1.328;103.810;2023-02-28T03:56:48;29.50;99.90
31575;DHT22;18182;1.328;103.810;2023-02-28T03:59:20;29.40;99.90
31575;DHT22;18182;1.328;103.810;2023-02-28T04:01:48;29.30;99.90
31575;DHT22;18182;1.328;103.810;2023-02-28T04:04:15;29.20;99.90
31575;DHT22;18182;1.328;103.810;2023-02-28T04:06:41;29.20;99.90
31575;DHT22;18182;1.328;103.810;2023-02-28T04:09:08;29.10;99.90
31575;DHT22;18182;1.328;103.810;2023-02-28T04:11:36;29.10;99.90
31575;DHT22;18182;1.328;103.810;2023-02-28T04:14:03;29.20;99.90
31575;DHT22;18182;1.328;103.810;2023-02-28T04:16:33;29.20;99.90
31575;DHT22;18182;1.328;103.810;2023-02-28T04:19:00;29.20;99.90
31575;DHT22;18182;1.328;103.810;2023-02-28T04:21:31;29.10;99.90
31575;DHT22;18182;1.328;103.810;2023-02-28T04:23:57;29.00;99.90
31575;DHT22;18182;1.328;103.810;2023-02-28T04:26:30;29.00;99.90
31575;DHT22;18182;1.328;103.810;2023-02-28T04:28:56;28.90;99.90
31575;DHT22;18182;1.328;103.810;2023-02-28T04:31:23;28.80;99.90
31575;DHT22;18182;1.328;103.810;2023-02-28T04:33:49;28.70;99.90
31575;DHT22;18182;1.328;103.810;2023-02-28T04:36:15;28.50;99.90
31575;DHT22;18182;1.328;103.810;2023-02-28T04:38:43;28.50;99.90
31575;DHT22;18182;1.328;103.810;2023-02-28T04:41:09;28.40;99.90
31575;DHT22;18182;1.328;103.810;2023-02-28T04:43:35;28.40;99.90
31575;DHT22;18182;1.328;103.810;2023-02-28T04:46:03;28.40;99.90
31575;DHT22;18182;1.328;103.810;2023-02-28T04:48:30;28.30;99.90
31575;DHT22;18182;1.328;103.810;2023-02-28T04:51:06;28.30;99.90
31575;DHT22;18182;1.328;103.810;2023-02-28T04:53:33;28.30;99.90
31575;DHT22;18182;1.328;103.810;2023-02-28T04:55:59;28.40;99.90
31575;DHT22;18182;1.328;103.810;2023-02-28T04:58:25;28.40;99.90
31575;DHT22;18182;1.328;103.810;2023-02-28T05:00:52;28.40;99.90
31575;DHT22;18182;1.328;103.810;2023-02-28T05:03:19;28.40;99.90
31575;DHT22;18182;1.328;103.810;2023-02-28T05:05:46;28.30;99.90
31575;DHT22;18182;1.328;103.810;2023-02-28T05:08:12;28.30;99.90
31575;DHT22;18182;1.328;103.810;2023-02-28T05:10:38;28.30;99.90
31575;DHT22;18182;1.328;103.810;2023-02-28T05:13:05;28.30;99.90
31575;DHT22;18182;1.328;103.810;2023-02-28T05:15:31;28.30;99.90
31575;DHT22;18182;1.328;103.810;2023-02-28T05:17:57;28.30;99.90
31575;DHT22;18182;1.328;103.810;2023-02-28T05:20:23;28.30;99.90
31575;DHT22;18182;1.328;103.810;2023-02-28T05:22:49;28.30;99.90
31575;DHT22;18182;1.328;103.810;2023-02-28T05:25:19;28.30;99.90
31575;DHT22;18182;1.328;103.810;2023-02-28T05:27:47;28.20;99.90
31575;DHT22;18182;1.328;103.810;2023-02-28T05:30:13;28.20;99.90
31575;DHT22;18182;1.328;103.810;2023-02-28T05:32:39;28.20;99.90
31575;DHT22;18182;1.328;103.810;2023-02-28T05:35:10;28.20;99.90
31575;DHT22;18182;1.328;103.810;2023-02-28T05:37:36;28.20;99.90
31575;DHT22;18182;1.328;103.810;2023-02-28T05:40:03;28.20;99.90
31575;DHT22;18182;1.328;103.810;2023-02-28T05:42:33;28.20;99.90
31575;DHT22;18182;1.328;103.810;2023-02-28T05:44:59;28.20;99.90
31575;DHT22;18182;1.328;103.810;2023-02-28T05:47:25;28.20;99.90
31575;DHT22;18182;1.328;103.810;2023-02-28T05:49:59;28.20;99.90
31575;DHT22;18182;1.328;103.810;2023-02-28T05:52:26;28.20;99.90
31575;DHT22;18182;1.328;103.810;2023-02-28T05:54:52;28.30;99.90
31575;DHT22;18182;1.328;103.810;2023-02-28T05:57:18;28.30;99.90
31575;DHT22;18182;1.328;103.810;2023-02-28T05:59:44;28.30;99.90
31575;DHT22;18182;1.328;103.810;2023-02-28T06:02:10;28.30;99.90
31575;DHT22;18182;1.328;103.810;2023-02-28T06:04:37;28.30;99.90
31575;DHT22;18182;1.328;103.810;2023-02-28T06:07:04;28.30;99.90
31575;DHT22;18182;1.328;103.810;2023-02-28T06:09:30;28.30;99.90
31575;DHT22;18182;1.328;103.810;2023-02-28T06:12:00;28.40;99.90
31575;DHT22;18182;1.328;103.810;2023-02-28T06:14:28;28.40;99.90
31575;DHT22;18182;1.328;103.810;2023-02-28T06:16:54;28.40;99.90
31575;DHT22;18182;1.328;103.810;2023-02-28T06:19:20;28.50;99.90
31575;DHT22;18182;1.328;103.810;2023-02-28T06:21:51;28.50;99.90
31575;DHT22;18182;1.328;103.810;2023-02-28T06:24:21;28.60;99.90
31575;DHT22;18182;1.328;103.810;2023-02-28T06:26:47;28.60;99.90
31575;DHT22;18182;1.328;103.810;2023-02-28T06:29:14;28.70;99.90
31575;DHT22;18182;1.328;103.810;2023-02-28T06:31:44;28.70;99.90
31575;DHT22;18182;1.328;103.810;2023-02-28T06:34:10;28.70;99.90
31575;DHT22;18182;1.328;103.810;2023-02-28T06:36:39;28.80;99.90
31575;DHT22;18182;1.328;103.810;2023-02-28T06:39:05;28.80;99.90
31575;DHT22;18182;1.328;103.810;2023-02-28T06:41:32;28.80;99.90
31575;DHT22;18182;1.328;103.810;2023-02-28T06:44:04;28.90;99.90
31575;DHT22;18182;1.328;103.810;2023-02-28T06:46:31;28.90;99.90
31575;DHT22;18182;1.328;103.810;2023-02-28T06:48:57;28.90;99.90
31575;DHT22;18182;1.328;103.810;2023-02-28T06:51:24;28.90;99.90
31575;DHT22;18182;1.328;103.810;2023-02-28T06:53:50;28.90;99.90
31575;DHT22;18182;1.328;103.810;2023-02-28T06:56:17;29.00;99.90
31575;DHT22;18182;1.328;103.810;2023-02-28T06:58:46;29.00;99.90
31575;DHT22;18182;1.328;103.810;2023-02-28T07:01:13;29.00;99.90
31575;DHT22;18182;1.328;103.810;2023-02-28T07:03:40;29.10;99.90
31575;DHT22;18182;1.328;103.810;2023-02-28T07:06:06;29.10;99.90
31575;DHT22;18182;1.328;103.810;2023-02-28T07:08:33;29.10;99.90
31575;DHT22;18182;1.328;103.810;2023-02-28T07:10:59;29.00;99.90
31575;DHT22;18182;1.328;103.810;2023-02-28T07:13:25;29.10;99.90
31575;DHT22;18182;1.328;103.810;2023-02-28T07:15:55;29.10;99.90
31575;DHT22;18182;1.328;103.810;2023-02-28T07:18:21;29.00;99.90
31575;DHT22;18182;1.328;103.810;2023-02-28T07:20:47;28.90;99.90
31575;DHT22;18182;1.328;103.810;2023-02-28T07:23:13;28.90;99.90
31575;DHT22;18182;1.328;103.810;2023-02-28T07:25:40;28.80;99.90
31575;DHT22;18182;1.328;103.810;2023-02-28T07:28:06;28.80;99.90
31575;DHT22;18182;1.328;103.810;2023-02-28T07:30:32;28.70;99.90
31575;DHT22;18182;1.328;103.810;2023-02-28T07:32:58;28.70;99.90
31575;DHT22;18182;1.328;103.810;2023-02-28T07:35:24;28.70;99.90
31575;DHT22;18182;1.328;103.810;2023-02-28T07:37:51;28.60;99.90
31575;DHT22;18182;1.328;103.810;2023-02-28T07:40:17;28.60;99.90
31575;DHT22;18182;1.328;103.810;2023-02-28T07:42:44;28.50;99.90
31575;DHT22;18182;1.328;103.810;2023-02-28T07:45:10;28.50;99.90
31575;DHT22;18182;1.328;103.810;2023-02-28T07:47:40;28.50;99.90
31575;DHT22;18182;1.328;103.810;2023-02-28T07:50:08;28.60;99.90
31575;DHT22;18182;1.328;103.810;2023-02-28T07:52:35;28.60;99.90
31575;DHT22;18182;1.328;103.810;2023-02-28T07:55:02;28.60;99.90
31575;DHT22;18182;1.328;103.810;2023-02-28T07:57:28;28.60;99.90
31575;DHT22;18182;1.328;103.810;2023-02-28T07:59:54;28.60;99.90
31575;DHT22;18182;1.328;103.810;2023-02-28T08:02:20;28.70;99.90
31575;DHT22;18182;1.328;103.810;2023-02-28T08:04:46;28.70;99.90
31575;DHT22;18182;1.328;103.810;2023-02-28T08:07:14;28.60;99.90
31575;DHT22;18182;1.328;103.810;2023-02-28T08:09:40;28.60;99.90
31575;DHT22;18182;1.328;103.810;2023-02-28T08:12:06;28.50;99.90
31575;DHT22;18182;1.328;103.810;2023-02-28T08:14:33;28.50;99.90
31575;DHT22;18182;1.328;103.810;2023-02-28T08:16:59;28.50;99.90
31575;DHT22;18182;1.328;103.810;2023-02-28T08:19:25;28.50;99.90
31575;DHT22;18182;1.328;103.810;2023-02-28T08:21:52;28.50;99.90
31575;DHT22;18182;1.328;103.810;2023-02-28T08:24:18;28.50;99.90
31575;DHT22;18182;1.328;103.810;2023-02-28T08:26:44;28.50;99.90
31575;DHT22;18182;1.328;103.810;2023-02-28T08:29:10;28.50;99.90
31575;DHT22;18182;1.328;103.810;2023-02-28T08:31:36;28.50;99.90
31575;DHT22;18182;1.328;103.810;2023-02-28T08:34:06;28.50;99.90
31575;DHT22;18182;1.328;103.810;2023-02-28T08:36:33;28.50;99.90
31575;DHT22;18182;1.328;103.810;2023-02-28T08:38:59;28.50;99.90
31575;DHT22;18182;1.328;103.810;2023-02-28T08:41:25;28.50;99.90
31575;DHT22;18182;1.328;103.810;2023-02-28T08:43:51;28.40;99.90
31575;DHT22;18182;1.328;103.810;2023-02-28T08:46:19;28.50;99.90
31575;DHT22;18182;1.328;103.810;2023-02-28T08:48:45;28.50;99.90
31575;DHT22;18182;1.328;103.810;2023-02-28T08:51:12;28.50;99.90
31575;DHT22;18182;1.328;103.810;2023-02-28T08:53:39;28.50;99.90
31575;DHT22;18182;1.328;103.810;2023-02-28T08:56:07;28.40;99.90
31575;DHT22;18182;1.328;103.810;2023-02-28T08:58:33;28.40;99.90
31575;DHT22;18182;1.328;103.810;2023-02-28T09:01:00;28.40;99.90
31575;DHT22;18182;1.328;103.810;2023-02-28T09:03:26;28.40;99.90
31575;DHT22;18182;1.328;103.810;2023-02-28T09:05:56;28.30;99.90
31575;DHT22;18182;1.328;103.810;2023-02-28T09:08:23;28.20;99.90
31575;DHT22;18182;1.328;103.810;2023-02-28T09:10:49;28.20;99.90
31575;DHT22;18182;1.328;103.810;2023-02-28T09:13:15;28.20;99.90
31575;DHT22;18182;1.328;103.810;2023-02-28T09:15:41;28.30;99.90
31575;DHT22;18182;1.328;103.810;2023-02-28T09:18:07;28.20;99.90
31575;DHT22;18182;1.328;103.810;2023-02-28T09:20:34;28.20;99.90
31575;DHT22;18182;1.328;103.810;2023-02-28T09:23:02;28.10;99.90
31575;DHT22;18182;1.328;103.810;2023-02-28T09:25:28;28.10;99.90
31575;DHT22;18182;1.328;103.810;2023-02-28T09:27:55;28.10;99.90
31575;DHT22;18182;1.328;103.810;2023-02-28T09:30:21;28.00;99.90
31575;DHT22;18182;1.328;103.810;2023-02-28T09:32:47;28.10;99.90
31575;DHT22;18182;1.328;103.810;2023-02-28T09:35:19;28.10;99.90
31575;DHT22;18182;1.328;103.810;2023-02-28T09:37:47;28.10;99.90
31575;DHT22;18182;1.328;103.810;2023-02-28T09:40:13;28.20;99.90
31575;DHT22;18182;1.328;103.810;2023-02-28T09:42:40;28.20;99.90
31575;DHT22;18182;1.328;103.810;2023-02-28T09:45:10;28.20;99.90
31575;DHT22;18182;1.328;103.810;2023-02-28T09:47:39;28.20;99.90
31575;DHT22;18182;1.328;103.810;2023-02-28T09:50:16;28.20;99.90
31575;DHT22;18182;1.328;103.810;2023-02-28T09:52:43;28.20;99.90
31575;DHT22;18182;1.328;103.810;2023-02-28T09:57:53;28.20;99.90
31575;DHT22;18182;1.328;103.810;2023-02-28T10:00:28;28.10;99.90
31575;DHT22;18182;1.328;103.810;2023-02-28T10:05:26;28.00;99.90
31575;DHT22;18182;1.328;103.810;2023-02-28T10:10:43;27.90;99.90
31575;DHT22;18182;1.328;103.810;2023-02-28T10:15:39;27.80;99.90
31575;DHT22;18182;1.328;103.810;2023-02-28T10:18:08;27.80;99.90
31575;DHT22;18182;1.328;103.810;2023-02-28T10:20:39;27.80;99.90
31575;DHT22;18182;1.328;103.810;2023-02-28T10:25:57;27.70;99.90
31575;DHT22;18182;1.328;103.810;2023-02-28T10:28:23;27.70;99.90
31575;DHT22;18182;1.328;103.810;2023-02-28T10:30:55;27.60;99.90
31575;DHT22;18182;1.328;103.810;2023-02-28T10:33:26;27.60;99.90
31575;DHT22;18182;1.328;103.810;2023-02-28T10:35:54;27.60;99.90
31575;DHT22;18182;1.328;103.810;2023-02-28T10:38:22;27.60;99.90
31575;DHT22;18182;1.328;103.810;2023-02-28T10:40:48;27.60;99.90
31575;DHT22;18182;1.328;103.810;2023-02-28T10:45:55;27.60;99.90
31575;DHT22;18182;1.328;103.810;2023-02-28T10:48:27;27.60;99.90
31575;DHT22;18182;1.328;103.810;2023-02-28T10:50:54;27.60;99.90
31575;DHT22;18182;1.328;103.810;2023-02-28T11:01:39;27.80;99.90
31575;DHT22;18182;1.328;103.810;2023-02-28T11:04:17;27.80;99.90
31575;DHT22;18182;1.328;103.810;2023-02-28T11:06:44;27.90;99.90
31575;DHT22;18182;1.328;103.810;2023-02-28T11:09:31;27.90;99.90
31575;DHT22;18182;1.328;103.810;2023-02-28T11:11:59;27.90;99.90
31575;DHT22;18182;1.328;103.810;2023-02-28T11:14:26;27.90;99.90
31575;DHT22;18182;1.328;103.810;2023-02-28T11:16:53;27.90;99.90
31575;DHT22;18182;1.328;103.810;2023-02-28T11:19:22;27.90;99.90
31575;DHT22;18182;1.328;103.810;2023-02-28T11:21:54;27.90;99.90
31575;DHT22;18182;1.328;103.810;2023-02-28T11:26:47;27.90;99.90
31575;DHT22;18182;1.328;103.810;2023-02-28T11:34:40;27.90;99.90
31575;DHT22;18182;1.328;103.810;2023-02-28T11:37:09;27.90;99.90
31575;DHT22;18182;1.328;103.810;2023-02-28T11:39:37;27.90;99.90
31575;DHT22;18182;1.328;103.810;2023-02-28T11:48:17;27.90;99.90
31575;DHT22;18182;1.328;103.810;2023-02-28T11:55:41;27.90;99.90
31575;DHT22;18182;1.328;103.810;2023-02-28T12:01:12;27.90;99.90
31575;DHT22;18182;1.328;103.810;2023-02-28T12:09:27;27.80;99.90
31575;DHT22;18182;1.328;103.810;2023-02-28T12:16:29;27.60;99.90
31575;DHT22;18182;1.328;103.810;2023-02-28T12:19:05;27.50;99.90
31575;DHT22;18182;1.328;103.810;2023-02-28T12:21:45;27.60;99.90
31575;DHT22;18182;1.328;103.810;2023-02-28T12:26:47;27.60;99.90
31575;DHT22;18182;1.328;103.810;2023-02-28T12:31:43;27.40;99.90
31575;DHT22;18182;1.328;103.810;2023-02-28T12:34:12;27.40;99.90
31575;DHT22;18182;1.328;103.810;2023-02-28T12:36:39;27.40;99.90
31575;DHT22;18182;1.328;103.810;2023-02-28T12:41:49;27.30;99.90
31575;DHT22;18182;1.328;103.810;2023-02-28T12:44:19;27.30;99.90
31575;DHT22;18182;1.328;103.810;2023-02-28T12:46:49;27.30;99.90
31575;DHT22;18182;1.328;103.810;2023-02-28T12:49:21;27.30;99.90
31575;DHT22;18182;1.328;103.810;2023-02-28T12:51:50;27.30;99.90
31575;DHT22;18182;1.328;103.810;2023-02-28T12:54:28;27.30;99.90
31575;DHT22;18182;1.328;103.810;2023-02-28T12:59:39;27.50;99.90
31575;DHT22;18182;1.328;103.810;2023-02-28T13:10:04;27.50;99.90
31575;DHT22;18182;1.328;103.810;2023-02-28T13:12:33;27.60;99.90
31575;DHT22;18182;1.328;103.810;2023-02-28T13:17:56;27.70;99.90
31575;DHT22;18182;1.328;103.810;2023-02-28T13:20:34;27.70;99.90
31575;DHT22;18182;1.328;103.810;2023-02-28T13:23:00;27.70;99.90
31575;DHT22;18182;1.328;103.810;2023-02-28T13:28:07;27.70;99.90
31575;DHT22;18182;1.328;103.810;2023-02-28T13:36:44;27.40;99.90
31575;DHT22;18182;1.328;103.810;2023-02-28T13:38:49;27.30;99.90
31575;DHT22;18182;1.328;103.810;2023-02-28T13:44:15;27.20;99.90
31575;DHT22;18182;1.328;103.810;2023-02-28T14:00:13;26.70;99.90
31575;DHT22;18182;1.328;103.810;2023-02-28T14:02:50;26.60;99.90
31575;DHT22;18182;1.328;103.810;2023-02-28T14:05:19;26.30;99.90
31575;DHT22;18182;1.328;103.810;2023-02-28T14:07:52;26.10;99.90
31575;DHT22;18182;1.328;103.810;2023-02-28T14:10:26;26.00;99.90
31575;DHT22;18182;1.328;103.810;2023-02-28T14:12:56;26.00;99.90
31575;DHT22;18182;1.328;103.810;2023-02-28T14:15:26;25.90;99.90
31575;DHT22;18182;1.328;103.810;2023-02-28T14:17:56;25.90;99.90
31575;DHT22;18182;1.328;103.810;2023-02-28T14:20:26;26.10;99.90
31575;DHT22;18182;1.328;103.810;2023-02-28T14:28:27;26.30;99.90
31575;DHT22;18182;1.328;103.810;2023-02-28T14:36:27;26.20;99.90
31575;DHT22;18182;1.328;103.810;2023-02-28T14:38:58;26.10;99.90
31575;DHT22;18182;1.328;103.810;2023-02-28T14:41:32;26.00;99.90
31575;DHT22;18182;1.328;103.810;2023-02-28T14:44:13;26.00;99.90
31575;DHT22;18182;1.328;103.810;2023-02-28T14:46:39;26.10;99.90
31575;DHT22;18182;1.328;103.810;2023-02-28T14:49:06;26.20;99.90
31575;DHT22;18182;1.328;103.810;2023-02-28T14:51:38;26.20;99.90
31575;DHT22;18182;1.328;103.810;2023-02-28T14:54:04;26.30;99.90
31575;DHT22;18182;1.328;103.810;2023-02-28T14:56:37;26.40;99.90
31575;DHT22;18182;1.328;103.810;2023-02-28T14:59:04;26.40;99.90
31575;DHT22;18182;1.328;103.810;2023-02-28T15:01:30;26.40;99.90
31575;DHT22;18182;1.328;103.810;2023-02-28T15:04:01;26.40;99.90
31575;DHT22;18182;1.328;103.810;2023-02-28T15:06:29;26.50;99.90
31575;DHT22;18182;1.328;103.810;2023-02-28T15:09:15;26.50;99.90
31575;DHT22;18182;1.328;103.810;2023-02-28T15:11:41;26.50;99.90
31575;DHT22;18182;1.328;103.810;2023-02-28T15:14:15;26.60;99.90
31575;DHT22;18182;1.328;103.810;2023-02-28T15:16:43;26.60;99.90
31575;DHT22;18182;1.328;103.810;2023-02-28T15:19:23;26.70;99.90
31575;DHT22;18182;1.328;103.810;2023-02-28T15:21:52;26.70;99.90
31575;DHT22;18182;1.328;103.810;2023-02-28T15:27:09;26.70;99.90
31575;DHT22;18182;1.328;103.810;2023-02-28T15:29:46;26.80;99.90
31575;DHT22;18182;1.328;103.810;2023-02-28T15:34:58;26.80;99.90
31575;DHT22;18182;1.328;103.810;2023-02-28T15:39:56;26.50;99.90
31575;DHT22;18182;1.328;103.810;2023-02-28T15:42:23;26.30;99.90
31575;DHT22;18182;1.328;103.810;2023-02-28T15:44:49;26.20;99.90
31575;DHT22;18182;1.328;103.810;2023-02-28T15:47:19;26.20;99.90
31575;DHT22;18182;1.328;103.810;2023-02-28T15:49:52;26.20;99.90
31575;DHT22;18182;1.328;103.810;2023-02-28T15:52:38;26.20;99.90
31575;DHT22;18182;1.328;103.810;2023-02-28T15:57:38;26.10;99.90
31575;DHT22;18182;1.328;103.810;2023-02-28T16:00:05;26.00;99.90
31575;DHT22;18182;1.328;103.810;2023-02-28T16:02:36;26.00;99.90
31575;DHT22;18182;1.328;103.810;2023-02-28T16:07:33;26.00;99.90
31575;DHT22;18182;1.328;103.810;2023-02-28T16:09:59;25.90;99.90
31575;DHT22;18182;1.328;103.810;2023-02-28T16:12:27;25.90;99.90
31575;DHT22;18182;1.328;103.810;2023-02-28T16:14:54;25.90;99.90
31575;DHT22;18182;1.328;103.810;2023-02-28T16:17:22;25.90;99.90
31575;DHT22;18182;1.328;103.810;2023-02-28T16:19:49;25.80;99.90
31575;DHT22;18182;1.328;103.810;2023-02-28T16:22:15;25.80;99.90
31575;DHT22;18182;1.328;103.810;2023-02-28T16:24:41;25.90;99.90
31575;DHT22;18182;1.328;103.810;2023-02-28T16:27:18;25.90;99.90
31575;DHT22;18182;1.328;103.810;2023-02-28T16:29:45;25.80;99.90
31575;DHT22;18182;1.328;103.810;2023-02-28T16:32:13;25.90;99.90
31575;DHT22;18182;1.328;103.810;2023-02-28T16:34:41;25.80;99.90
31575;DHT22;18182;1.328;103.810;2023-02-28T16:37:14;25.80;99.90
31575;DHT22;18182;1.328;103.810;2023-02-28T16:39:41;25.90;99.90
31575;DHT22;18182;1.328;103.810;2023-02-28T16:42:11;25.90;99.90
31575;DHT22;18182;1.328;103.810;2023-02-28T16:44:41;25.80;99.90
31575;DHT22;18182;1.328;103.810;2023-02-28T16:47:08;25.80;99.90
31575;DHT22;18182;1.328;103.810;2023-02-28T16:49:35;25.80;99.90
31575;DHT22;18182;1.328;103.810;2023-02-28T16:52:01;25.60;99.90
31575;DHT22;18182;1.328;103.810;2023-02-28T16:54:27;25.60;99.90
31575;DHT22;18182;1.328;103.810;2023-02-28T16:56:53;25.50;99.90
31575;DHT22;18182;1.328;103.810;2023-02-28T16:59:22;25.40;99.90
31575;DHT22;18182;1.328;103.810;2023-02-28T17:01:50;25.40;99.90
31575;DHT22;18182;1.328;103.810;2023-02-28T17:04:17;25.40;99.90
31575;DHT22;18182;1.328;103.810;2023-02-28T17:06:43;25.40;99.90
31575;DHT22;18182;1.328;103.810;2023-02-28T17:09:16;25.50;99.90
31575;DHT22;18182;1.328;103.810;2023-02-28T17:11:43;25.50;99.90
31575;DHT22;18182;1.328;103.810;2023-02-28T17:14:10;25.60;99.90
31575;DHT22;18182;1.328;103.810;2023-02-28T17:16:36;25.60;99.90
31575;DHT22;18182;1.328;103.810;2023-02-28T17:19:06;25.60;99.90
31575;DHT22;18182;1.328;103.810;2023-02-28T17:21:32;25.60;99.90
31575;DHT22;18182;1.328;103.810;2023-02-28T17:23:59;25.70;99.90
31575;DHT22;18182;1.328;103.810;2023-02-28T17:26:25;25.60;99.90
31575;DHT22;18182;1.328;103.810;2023-02-28T17:28:53;25.60;99.90
31575;DHT22;18182;1.328;103.810;2023-02-28T17:31:23;25.60;99.90
31575;DHT22;18182;1.328;103.810;2023-02-28T17:33:50;25.60;99.90
31575;DHT22;18182;1.328;103.810;2023-02-28T17:36:17;25.60;99.90
31575;DHT22;18182;1.328;103.810;2023-02-28T17:38:47;25.60;99.90
31575;DHT22;18182;1.328;103.810;2023-02-28T17:41:13;25.60;99.90
31575;DHT22;18182;1.328;103.810;2023-02-28T17:43:40;25.70;99.90
31575;DHT22;18182;1.328;103.810;2023-02-28T17:46:10;25.80;99.90
31575;DHT22;18182;1.328;103.810;2023-02-28T17:48:40;25.80;99.90
31575;DHT22;18182;1.328;103.810;2023-02-28T17:51:07;25.80;99.90
31575;DHT22;18182;1.328;103.810;2023-02-28T17:53:34;25.90;99.90
31575;DHT22;18182;1.328;103.810;2023-02-28T17:56:00;25.80;99.90
31575;DHT22;18182;1.328;103.810;2023-02-28T17:58:27;25.80;99.90
31575;DHT22;18182;1.328;103.810;2023-02-28T18:00:54;25.80;99.90
31575;DHT22;18182;1.328;103.810;2023-02-28T18:03:20;25.90;99.90